sensor_id;sensor_type;location;lat;lon;timestamp;temperature;humidity
7232;DHT22;3657;49.630;11.018;2024-03-02T00:00:39;6.30;99.90
7232;DHT22;3657;49.630;11.018;2024-03-02T00:03:07;6.30;99.90
7232;DHT22;3657;49.630;11.018;2024-03-02T00:05:35;6.30;99.90
7232;DHT22;3657;49.630;11.018;2024-03-02T00:08:04;6.20;99.90
7232;DHT22;3657;49.630;11.018;2024-03-02T00:10:36;6.20;99.90
7232;DHT22;3657;49.630;11.018;2024-03-02T00:13:05;6.30;99.90
7232;DHT22;3657;49.630;11.018;2024-03-02T00:15:44;6.30;99.90
7232;DHT22;3657;49.630;11.018;2024-03-02T00:18:16;6.30;99.90
7232;DHT22;3657;49.630;11.018;2024-03-02T00:20:45;6.40;99.90
7232;DHT22;3657;49.630;11.018;2024-03-02T00:23:15;6.40;99.90
7232;DHT22;3657;49.630;11.018;2024-03-02T00:25:44;6.40;99.90
7232;DHT22;3657;49.630;11.018;2024-03-02T00:28:18;6.40;99.90
7232;DHT22;3657;49.630;11.018;2024-03-02T00:30:56;6.40;99.90
7232;DHT22;3657;49.630;11.018;2024-03-02T00:33:26;6.30;99.90
7232;DHT22;3657;49.630;11.018;2024-03-02T00:35:54;6.40;99.90
7232;DHT22;3657;49.630;11.018;2024-03-02T00:38:22;6.30;99.90
7232;DHT22;3657;49.630;11.018;2024-03-02T00:40:49;6.30;99.90
7232;DHT22;3657;49.630;11.018;2024-03-02T00:43:43;6.30;99.90
7232;DHT22;3657;49.630;11.018;2024-03-02T00:46:11;6.40;99.90
7232;DHT22;3657;49.630;11.018;2024-03-02T00:48:48;6.40;99.90
7232;DHT22;3657;49.630;11.018;2024-03-02T00:51:15;6.40;99.90
7232;DHT22;3657;49.630;11.018;2024-03-02T00:53:42;6.40;99.90
7232;DHT22;3657;49.630;11.018;2024-03-02T00:56:10;6.40;99.90
7232;DHT22;3657;49.630;11.018;2024-03-02T00:58:37;6.40;99.90
7232;DHT22;3657;49.630;11.018;2024-03-02T01:01:03;6.40;99.90
7232;DHT22;3657;49.630;11.018;2024-03-02T01:03:31;6.40;99.90
7232;DHT22;3657;49.630;11.018;2024-03-02T01:05:59;6.40;99.90
7232;DHT22;3657;49.630;11.018;2024-03-02T01:08:26;6.40;99.90
7232;DHT22;3657;49.630;11.018;2024-03-02T01:10:53;6.40;99.90
7232;DHT22;3657;49.630;11.018;2024-03-02T01:13:20;6.50;99.90
7232;DHT22;3657;49.630;11.018;2024-03-02T01:15:47;6.40;99.90
7232;DHT22;3657;49.630;11.018;2024-03-02T01:18:14;6.50;99.90
7232;DHT22;3657;49.630;11.018;2024-03-02T01:20:40;6.50;99.90
7232;DHT22;3657;49.630;11.018;2024-03-02T01:23:08;6.50;99.90
7232;DHT22;3657;49.630;11.018;2024-03-02T01:25:36;6.50;99.90
7232;DHT22;3657;49.630;11.018;2024-03-02T01:28:03;6.50;99.90
7232;DHT22;3657;49.630;11.018;2024-03-02T01:30:30;6.40;99.90
7232;DHT22;3657;49.630;11.018;2024-03-02T01:32:57;6.40;99.90
7232;DHT22;3657;49.630;11.018;2024-03-02T01:35:24;6.50;99.90
7232;DHT22;3657;49.630;11.018;2024-03-02T01:37:52;6.50;99.90
7232;DHT22;3657;49.630;11.018;2024-03-02T01:40:20;6.40;99.90
7232;DHT22;3657;49.630;11.018;2024-03-02T01:42:47;6.40;99.90
7232;DHT22;3657;49.630;11.018;2024-03-02T01:45:13;6.40;99.90
7232;DHT22;3657;49.630;11.018;2024-03-02T01:47:40;6.40;99.90
7232;DHT22;3657;49.630;11.018;2024-03-02T01:50:08;6.40;99.90
7232;DHT22;3657;49.630;11.018;2024-03-02T01:52:36;6.40;99.90
7232;DHT22;3657;49.630;11.018;2024-03-02T01:55:04;6.40;99.90
7232;DHT22;3657;49.630;11.018;2024-03-02T01:57:32;6.40;99.90
7232;DHT22;3657;49.630;11.018;2024-03-02T02:00:00;6.40;99.90
7232;DHT22;3657;49.630;11.018;2024-03-02T02:02:27;6.40;99.90
7232;DHT22;3657;49.630;11.018;2024-03-02T02:04:54;6.40;99.90
7232;DHT22;3657;49.630;11.018;2024-03-02T02:07:20;6.40;99.90
7232;DHT22;3657;49.630;11.018;2024-03-02T02:09:47;6.40;99.90
7232;DHT22;3657;49.630;11.018;2024-03-02T02:12:14;6.40;99.90
7232;DHT22;3657;49.630;11.018;2024-03-02T02:14:48;6.40;99.90
7232;DHT22;3657;49.630;11.018;2024-03-02T02:17:15;6.40;99.90
7232;DHT22;3657;49.630;11.018;2024-03-02T02:19:42;6.40;99.90
7232;DHT22;3657;49.630;11.018;2024-03-02T02:22:10;6.40;99.90
7232;DHT22;3657;49.630;11.018;2024-03-02T02:24:39;6.40;99.90
7232;DHT22;3657;49.630;11.018;2024-03-02T02:27:06;6.40;99.90
7232;DHT22;3657;49.630;11.018;2024-03-02T02:29:33;6.30;99.90
7232;DHT22;3657;49.630;11.018;2024-03-02T02:31:59;6.30;99.90
7232;DHT22;3657;49.630;11.018;2024-03-02T02:34:26;6.30;99.90
7232;DHT22;3657;49.630;11.018;2024-03-02T02:36:53;6.30;99.90
7232;DHT22;3657;49.630;11.018;2024-03-02T02:39:22;6.30;99.90
7232;DHT22;3657;49.630;11.018;2024-03-02T02:41:49;6.30;99.90
7232;DHT22;3657;49.630;11.018;2024-03-02T02:44:15;6.30;99.90
7232;DHT22;3657;49.630;11.018;2024-03-02T02:46:42;6.40;99.90
7232;DHT22;3657;49.630;11.018;2024-03-02T02:49:09;6.40;99.90
7232;DHT22;3657;49.630;11.018;2024-03-02T02:51:35;6.40;99.90
7232;DHT22;3657;49.630;11.018;2024-03-02T02:54:02;6.40;99.90
7232;DHT22;3657;49.630;11.018;2024-03-02T02:56:30;6.40;99.90
7232;DHT22;3657;49.630;11.018;2024-03-02T02:58:57;6.40;99.90
7232;DHT22;3657;49.630;11.018;2024-03-02T03:01:24;6.40;99.90
7232;DHT22;3657;49.630;11.018;2024-03-02T03:03:51;6.40;99.90
7232;DHT22;3657;49.630;11.018;2024-03-02T03:06:17;6.40;99.90
7232;DHT22;3657;49.630;11.018;2024-03-02T03:08:44;6.40;99.90
7232;DHT22;3657;49.630;11.018;2024-03-02T03:11:11;6.40;99.90
7232;DHT22;3657;49.630;11.018;2024-03-02T03:13:39;6.40;99.90
7232;DHT22;3657;49.630;11.018;2024-03-02T03:16:05;6.40;99.90
7232;DHT22;3657;49.630;11.018;2024-03-02T03:18:32;6.40;99.90
7232;DHT22;3657;49.630;11.018;2024-03-02T03:20:59;6.40;99.90
7232;DHT22;3657;49.630;11.018;2024-03-02T03:23:25;6.40;99.90
7232;DHT22;3657;49.630;11.018;2024-03-02T03:25:52;6.40;99.90
7232;DHT22;3657;49.630;11.018;2024-03-02T03:28:19;6.40;99.90
7232;DHT22;3657;49.630;11.018;2024-03-02T03:30:47;6.40;99.90
7232;DHT22;3657;49.630;11.018;2024-03-02T03:33:14;6.40;99.90
7232;DHT22;3657;49.630;11.018;2024-03-02T03:35:40;6.40;99.90
7232;DHT22;3657;49.630;11.018;2024-03-02T03:38:07;6.40;99.90
7232;DHT22;3657;49.630;11.018;2024-03-02T03:40:34;6.40;99.90
7232;DHT22;3657;49.630;11.018;2024-03-02T03:43:00;6.40;99.90
7232;DHT22;3657;49.630;11.018;2024-03-02T03:45:27;6.40;99.90
7232;DHT22;3657;49.630;11.018;2024-03-02T03:47:57;6.40;99.90
7232;DHT22;3657;49.630;11.018;2024-03-02T03:50:24;6.40;99.90
7232;DHT22;3657;49.630;11.018;2024-03-02T03:52:50;6.40;99.90
7232;DHT22;3657;49.630;11.018;2024-03-02T03:55:17;6.40;99.90
7232;DHT22;3657;49.630;11.018;2024-03-02T03:57:44;6.40;99.90
7232;DHT22;3657;49.630;11.018;2024-03-02T04:00:11;6.40;99.90
7232;DHT22;3657;49.630;11.018;2024-03-02T04:02:38;6.40;99.90
7232;DHT22;3657;49.630;11.018;2024-03-02T04:05:07;6.40;99.90
7232;DHT22;3657;49.630;11.018;2024-03-02T04:07:36;6.40;99.90
7232;DHT22;3657;49.630;11.018;2024-03-02T04:10:07;6.30;99.90
7232;DHT22;3657;49.630;11.018;2024-03-02T04:12:35;6.30;99.90
7232;DHT22;3657;49.630;11.018;2024-03-02T04:15:02;6.30;99.90
7232;DHT22;3657;49.630;11.018;2024-03-02T04:17:31;6.30;99.90
7232;DHT22;3657;49.630;11.018;2024-03-02T04:19:58;6.30;99.90
7232;DHT22;3657;49.630;11.018;2024-03-02T04:22:27;6.30;99.90
7232;DHT22;3657;49.630;11.018;2024-03-02T04:24:54;6.30;99.90
7232;DHT22;3657;49.630;11.018;2024-03-02T04:27:21;6.20;99.90
7232;DHT22;3657;49.630;11.018;2024-03-02T04:29:47;6.20;99.90
7232;DHT22;3657;49.630;11.018;2024-03-02T04:32:14;6.20;99.90
7232;DHT22;3657;49.630;11.018;2024-03-02T04:34:41;6.20;99.90
7232;DHT22;3657;49.630;11.018;2024-03-02T04:37:08;6.20;99.90
7232;DHT22;3657;49.630;11.018;2024-03-02T04:39:36;6.20;99.90
7232;DHT22;3657;49.630;11.018;2024-03-02T04:42:03;6.20;99.90
7232;DHT22;3657;49.630;11.018;2024-03-02T04:44:29;6.20;99.90
7232;DHT22;3657;49.630;11.018;2024-03-02T04:46:56;6.10;99.90
7232;DHT22;3657;49.630;11.018;2024-03-02T04:49:23;6.20;99.90
7232;DHT22;3657;49.630;11.018;2024-03-02T04:51:50;6.20;99.90
7232;DHT22;3657;49.630;11.018;2024-03-02T04:54:16;6.10;99.90
7232;DHT22;3657;49.630;11.018;2024-03-02T04:56:44;6.10;99.90
7232;DHT22;3657;49.630;11.018;2024-03-02T04:59:15;6.10;99.90
7232;DHT22;3657;49.630;11.018;2024-03-02T05:01:40;6.10;99.90
7232;DHT22;3657;49.630;11.018;2024-03-02T05:04:07;6.10;99.90
7232;DHT22;3657;49.630;11.018;2024-03-02T05:06:34;6.10;99.90
7232;DHT22;3657;49.630;11.018;2024-03-02T05:09:00;6.10;99.90
7232;DHT22;3657;49.630;11.018;2024-03-02T05:11:27;6.10;99.90
7232;DHT22;3657;49.630;11.018;2024-03-02T05:14:13;6.10;99.90
7232;DHT22;3657;49.630;11.018;2024-03-02T05:16:39;6.10;99.90
7232;DHT22;3657;49.630;11.018;2024-03-02T05:19:07;6.10;99.90
7232;DHT22;3657;49.630;11.018;2024-03-02T05:21:34;6.10;99.90
7232;DHT22;3657;49.630;11.018;2024-03-02T05:24:00;6.10;99.90
7232;DHT22;3657;49.630;11.018;2024-03-02T05:26:27;6.00;99.90
7232;DHT22;3657;49.630;11.018;2024-03-02T05:28:54;6.00;99.90
7232;DHT22;3657;49.630;11.018;2024-03-02T05:31:22;6.00;99.90
7232;DHT22;3657;49.630;11.018;2024-03-02T05:33:49;6.00;99.90
7232;DHT22;3657;49.630;11.018;2024-03-02T05:36:15;6.00;99.90
7232;DHT22;3657;49.630;11.018;2024-03-02T05:38:42;6.00;99.90
7232;DHT22;3657;49.630;11.018;2024-03-02T05:41:09;6.00;99.90
7232;DHT22;3657;49.630;11.018;2024-03-02T05:43:37;6.00;99.90
7232;DHT22;3657;49.630;11.018;2024-03-02T05:46:04;6.00;99.90
7232;DHT22;3657;49.630;11.018;2024-03-02T05:48:32;6.00;99.90
7232;DHT22;3657;49.630;11.018;2024-03-02T05:50:59;6.00;99.90
7232;DHT22;3657;49.630;11.018;2024-03-02T05:53:25;6.00;99.90
7232;DHT22;3657;49.630;11.018;2024-03-02T05:55:52;6.00;99.90
7232;DHT22;3657;49.630;11.018;2024-03-02T05:58:21;6.00;99.90
7232;DHT22;3657;49.630;11.018;2024-03-02T06:00:58;6.00;99.90
7232;DHT22;3657;49.630;11.018;2024-03-02T06:03:24;5.90;99.90
7232;DHT22;3657;49.630;11.018;2024-03-02T06:05:52;5.90;99.90
7232;DHT22;3657;49.630;11.018;2024-03-02T06:08:19;5.90;99.90
7232;DHT22;3657;49.630;11.018;2024-03-02T06:10:46;5.90;99.90
7232;DHT22;3657;49.630;11.018;2024-03-02T06:13:14;5.90;99.90
7232;DHT22;3657;49.630;11.018;2024-03-02T06:15:41;5.90;99.90
7232;DHT22;3657;49.630;11.018;2024-03-02T06:18:08;5.90;99.90
7232;DHT22;3657;49.630;11.018;2024-03-02T06:20:35;5.90;99.90
7232;DHT22;3657;49.630;11.018;2024-03-02T06:23:04;5.90;99.90
7232;DHT22;3657;49.630;11.018;2024-03-02T06:25:30;5.90;99.90
7232;DHT22;3657;49.630;11.018;2024-03-02T06:27:57;5.90;99.90
7232;DHT22;3657;49.630;11.018;2024-03-02T06:30:24;5.90;99.90
7232;DHT22;3657;49.630;11.018;2024-03-02T06:32:51;6.00;99.90
7232;DHT22;3657;49.630;11.018;2024-03-02T06:35:17;6.00;99.90
7232;DHT22;3657;49.630;11.018;2024-03-02T06:37:44;6.00;99.90
7232;DHT22;3657;49.630;11.018;2024-03-02T06:40:12;6.00;99.90
7232;DHT22;3657;49.630;11.018;2024-03-02T06:42:39;6.00;99.90
7232;DHT22;3657;49.630;11.018;2024-03-02T06:45:06;6.00;99.90
7232;DHT22;3657;49.630;11.018;2024-03-02T06:47:33;6.00;99.90
7232;DHT22;3657;49.630;11.018;2024-03-02T06:49:59;6.00;99.90
7232;DHT22;3657;49.630;11.018;2024-03-02T06:52:26;6.10;99.90
7232;DHT22;3657;49.630;11.018;2024-03-02T06:54:53;6.10;99.90
7232;DHT22;3657;49.630;11.018;2024-03-02T06:57:21;6.10;99.90
7232;DHT22;3657;49.630;11.018;2024-03-02T06:59:48;6.10;99.90
7232;DHT22;3657;49.630;11.018;2024-03-02T07:02:16;6.20;99.90
7232;DHT22;3657;49.630;11.018;2024-03-02T07:04:43;6.20;99.90
7232;DHT22;3657;49.630;11.018;2024-03-02T07:07:10;6.30;99.90
7232;DHT22;3657;49.630;11.018;2024-03-02T07:09:37;6.30;99.90
7232;DHT22;3657;49.630;11.018;2024-03-02T07:12:04;6.40;99.90
7232;DHT22;3657;49.630;11.018;2024-03-02T07:14:32;6.40;99.90
7232;DHT22;3657;49.630;11.018;2024-03-02T07:17:16;6.50;99.90
7232;DHT22;3657;49.630;11.018;2024-03-02T07:19:43;6.60;99.90
7232;DHT22;3657;49.630;11.018;2024-03-02T07:22:10;6.60;99.90
7232;DHT22;3657;49.630;11.018;2024-03-02T07:24:40;6.70;99.90
7232;DHT22;3657;49.630;11.018;2024-03-02T07:27:07;6.80;99.90
7232;DHT22;3657;49.630;11.018;2024-03-02T07:29:36;6.90;99.90
7232;DHT22;3657;49.630;11.018;2024-03-02T07:32:05;7.00;99.90
7232;DHT22;3657;49.630;11.018;2024-03-02T07:34:32;7.20;99.90
7232;DHT22;3657;49.630;11.018;2024-03-02T07:36:59;7.30;99.90
7232;DHT22;3657;49.630;11.018;2024-03-02T07:39:26;7.30;99.90
7232;DHT22;3657;49.630;11.018;2024-03-02T07:41:53;7.30;99.90
7232;DHT22;3657;49.630;11.018;2024-03-02T07:44:20;7.30;99.90
7232;DHT22;3657;49.630;11.018;2024-03-02T07:46:48;7.40;99.90
7232;DHT22;3657;49.630;11.018;2024-03-02T07:49:16;7.30;99.90
7232;DHT22;3657;49.630;11.018;2024-03-02T07:51:43;7.30;99.90
7232;DHT22;3657;49.630;11.018;2024-03-02T07:54:10;7.30;99.90
7232;DHT22;3657;49.630;11.018;2024-03-02T07:56:37;7.30;99.90
7232;DHT22;3657;49.630;11.018;2024-03-02T07:59:04;7.40;99.90
7232;DHT22;3657;49.630;11.018;2024-03-02T08:01:31;7.40;99.90
7232;DHT22;3657;49.630;11.018;2024-03-02T08:04:00;7.50;99.90
7232;DHT22;3657;49.630;11.018;2024-03-02T08:06:29;7.60;99.90
7232;DHT22;3657;49.630;11.018;2024-03-02T08:08:56;7.60;99.90
7232;DHT22;3657;49.630;11.018;2024-03-02T08:11:23;7.60;99.90
7232;DHT22;3657;49.630;11.018;2024-03-02T08:13:50;7.70;99.90
7232;DHT22;3657;49.630;11.018;2024-03-02T08:16:17;7.80;99.90
7232;DHT22;3657;49.630;11.018;2024-03-02T08:18:45;7.80;99.90
7232;DHT22;3657;49.630;11.018;2024-03-02T08:21:13;7.80;99.90
7232;DHT22;3657;49.630;11.018;2024-03-02T08:23:40;7.90;99.90
7232;DHT22;3657;49.630;11.018;2024-03-02T08:26:08;8.00;99.90
7232;DHT22;3657;49.630;11.018;2024-03-02T08:28:35;8.10;99.90
7232;DHT22;3657;49.630;11.018;2024-03-02T08:31:03;8.10;99.90
7232;DHT22;3657;49.630;11.018;2024-03-02T08:33:29;8.20;99.90
7232;DHT22;3657;49.630;11.018;2024-03-02T08:35:56;8.30;99.90
7232;DHT22;3657;49.630;11.018;2024-03-02T08:38:24;8.40;99.90
7232;DHT22;3657;49.630;11.018;2024-03-02T08:40:51;8.40;99.90
7232;DHT22;3657;49.630;11.018;2024-03-02T08:43:19;8.50;99.90
7232;DHT22;3657;49.630;11.018;2024-03-02T08:45:48;8.50;99.90
7232;DHT22;3657;49.630;11.018;2024-03-02T08:48:16;8.60;99.90
7232;DHT22;3657;49.630;11.018;2024-03-02T08:50:43;8.60;99.90
7232;DHT22;3657;49.630;11.018;2024-03-02T08:53:09;8.70;99.90
7232;DHT22;3657;49.630;11.018;2024-03-02T08:55:37;8.70;99.90
7232;DHT22;3657;49.630;11.018;2024-03-02T08:58:04;8.70;99.90
7232;DHT22;3657;49.630;11.018;2024-03-02T09:00:31;8.60;99.90
7232;DHT22;3657;49.630;11.018;2024-03-02T09:02:58;8.80;99.90
7232;DHT22;3657;49.630;11.018;2024-03-02T09:05:24;8.90;99.90
7232;DHT22;3657;49.630;11.018;2024-03-02T09:07:51;9.00;99.90
7232;DHT22;3657;49.630;11.018;2024-03-02T09:10:18;9.00;99.90
7232;DHT22;3657;49.630;11.018;2024-03-02T09:12:46;9.00;99.90
7232;DHT22;3657;49.630;11.018;2024-03-02T09:15:13;9.00;99.90
7232;DHT22;3657;49.630;11.018;2024-03-02T09:17:39;9.00;99.90
7232;DHT22;3657;49.630;11.018;2024-03-02T09:20:07;9.10;99.90
7232;DHT22;3657;49.630;11.018;2024-03-02T09:22:34;9.20;99.90
7232;DHT22;3657;49.630;11.018;2024-03-02T09:25:01;9.20;99.90
7232;DHT22;3657;49.630;11.018;2024-03-02T09:27:27;9.20;99.90
7232;DHT22;3657;49.630;11.018;2024-03-02T09:29:55;9.20;99.90
7232;DHT22;3657;49.630;11.018;2024-03-02T09:32:22;9.20;99.90
7232;DHT22;3657;49.630;11.018;2024-03-02T09:34:50;9.30;99.90
7232;DHT22;3657;49.630;11.018;2024-03-02T09:37:17;9.40;99.90
7232;DHT22;3657;49.630;11.018;2024-03-02T09:39:44;9.50;99.90
7232;DHT22;3657;49.630;11.018;2024-03-02T09:42:12;9.50;99.90
7232;DHT22;3657;49.630;11.018;2024-03-02T09:44:39;9.60;99.90
7232;DHT22;3657;49.630;11.018;2024-03-02T09:47:08;9.70;99.90
7232;DHT22;3657;49.630;11.018;2024-03-02T09:49:35;9.90;99.90
7232;DHT22;3657;49.630;11.018;2024-03-02T09:52:03;9.90;99.90
7232;DHT22;3657;49.630;11.018;2024-03-02T09:54:30;10.00;99.90
7232;DHT22;3657;49.630;11.018;2024-03-02T09:56:57;10.20;99.90
7232;DHT22;3657;49.630;11.018;2024-03-02T09:59:24;10.30;99.90
7232;DHT22;3657;49.630;11.018;2024-03-02T10:01:58;10.30;99.90
7232;DHT22;3657;49.630;11.018;2024-03-02T10:04:27;10.40;99.90
7232;DHT22;3657;49.630;11.018;2024-03-02T10:07:10;10.50;99.90
7232;DHT22;3657;49.630;11.018;2024-03-02T10:09:37;10.50;99.90
7232;DHT22;3657;49.630;11.018;2024-03-02T10:12:05;10.60;99.90
7232;DHT22;3657;49.630;11.018;2024-03-02T10:14:31;10.70;99.90
7232;DHT22;3657;49.630;11.018;2024-03-02T10:17:02;10.80;99.90
7232;DHT22;3657;49.630;11.018;2024-03-02T10:19:31;10.80;99.90
7232;DHT22;3657;49.630;11.018;2024-03-02T10:22:00;10.70;99.90
7232;DHT22;3657;49.630;11.018;2024-03-02T10:24:35;10.80;99.90
7232;DHT22;3657;49.630;11.018;2024-03-02T10:27:07;11.00;99.90
7232;DHT22;3657;49.630;11.018;2024-03-02T10:29:37;11.10;99.90
7232;DHT22;3657;49.630;11.018;2024-03-02T10:32:04;11.20;99.90
7232;DHT22;3657;49.630;11.018;2024-03-02T10:34:33;11.20;99.90
7232;DHT22;3657;49.630;11.018;2024-03-02T10:37:00;11.20;99.90
7232;DHT22;3657;49.630;11.018;2024-03-02T10:39:28;11.20;99.90
7232;DHT22;3657;49.630;11.018;2024-03-02T10:41:55;11.30;99.90
7232;DHT22;3657;49.630;11.018;2024-03-02T10:44:23;11.30;99.90
7232;DHT22;3657;49.630;11.018;2024-03-02T10:46:50;11.30;99.90
7232;DHT22;3657;49.630;11.018;2024-03-02T10:49:19;11.40;99.90
7232;DHT22;3657;49.630;11.018;2024-03-02T10:51:48;11.40;99.90
7232;DHT22;3657;49.630;11.018;2024-03-02T10:54:15;11.40;99.90
7232;DHT22;3657;49.630;11.018;2024-03-02T10:56:44;11.70;99.90
7232;DHT22;3657;49.630;11.018;2024-03-02T10:59:16;11.80;99.90
7232;DHT22;3657;49.630;11.018;2024-03-02T11:01:46;12.00;99.90
7232;DHT22;3657;49.630;11.018;2024-03-02T11:04:15;12.00;99.90
7232;DHT22;3657;49.630;11.018;2024-03-02T11:06:49;12.00;99.90
7232;DHT22;3657;49.630;11.018;2024-03-02T11:09:19;12.10;99.90
7232;DHT22;3657;49.630;11.018;2024-03-02T11:11:49;12.10;99.90
7232;DHT22;3657;49.630;11.018;2024-03-02T11:14:23;12.30;99.90
7232;DHT22;3657;49.630;11.018;2024-03-02T11:16:51;12.30;99.90
7232;DHT22;3657;49.630;11.018;2024-03-02T11:19:19;12.30;99.90
7232;DHT22;3657;49.630;11.018;2024-03-02T11:21:46;12.30;99.90
7232;DHT22;3657;49.630;11.018;2024-03-02T11:27:07;12.30;99.90
7232;DHT22;3657;49.630;11.018;2024-03-02T11:29:46;12.30;99.90
7232;DHT22;3657;49.630;11.018;2024-03-02T11:32:15;12.30;99.90
7232;DHT22;3657;49.630;11.018;2024-03-02T11:34:44;12.30;99.90
7232;DHT22;3657;49.630;11.018;2024-03-02T11:37:12;12.40;99.90
7232;DHT22;3657;49.630;11.018;2024-03-02T11:39:39;12.40;99.90
7232;DHT22;3657;49.630;11.018;2024-03-02T11:42:08;12.60;99.90
7232;DHT22;3657;49.630;11.018;2024-03-02T11:44:35;12.60;99.90
7232;DHT22;3657;49.630;11.018;2024-03-02T11:47:05;12.70;99.90
7232;DHT22;3657;49.630;11.018;2024-03-02T11:49:39;12.80;99.90
7232;DHT22;3657;49.630;11.018;2024-03-02T11:52:07;12.90;99.90
7232;DHT22;3657;49.630;11.018;2024-03-02T11:54:35;12.90;99.90
7232;DHT22;3657;49.630;11.018;2024-03-02T11:57:05;12.90;99.90
7232;DHT22;3657;49.630;11.018;2024-03-02T11:59:33;12.90;99.90
7232;DHT22;3657;49.630;11.018;2024-03-02T12:02:01;12.90;99.90
7232;DHT22;3657;49.630;11.018;2024-03-02T12:04:29;12.90;99.90
7232;DHT22;3657;49.630;11.018;2024-03-02T12:06:57;12.80;99.90
7232;DHT22;3657;49.630;11.018;2024-03-02T12:09:26;12.80;99.90
7232;DHT22;3657;49.630;11.018;2024-03-02T12:12:11;12.90;99.90
7232;DHT22;3657;49.630;11.018;2024-03-02T12:14:50;12.90;99.90
7232;DHT22;3657;49.630;11.018;2024-03-02T12:17:18;13.10;99.90
7232;DHT22;3657;49.630;11.018;2024-03-02T12:19:45;13.00;99.90
7232;DHT22;3657;49.630;11.018;2024-03-02T12:22:11;13.00;99.90
7232;DHT22;3657;49.630;11.018;2024-03-02T12:24:38;13.00;99.90
7232;DHT22;3657;49.630;11.018;2024-03-02T12:27:05;13.20;99.90
7232;DHT22;3657;49.630;11.018;2024-03-02T12:29:32;13.20;99.90
7232;DHT22;3657;49.630;11.018;2024-03-02T12:32:02;13.20;99.90
7232;DHT22;3657;49.630;11.018;2024-03-02T12:34:28;13.20;99.90
7232;DHT22;3657;49.630;11.018;2024-03-02T12:36:55;13.10;99.90
7232;DHT22;3657;49.630;11.018;2024-03-02T12:39:22;13.00;99.90
7232;DHT22;3657;49.630;11.018;2024-03-02T12:41:50;12.90;99.90
7232;DHT22;3657;49.630;11.018;2024-03-02T12:44:19;12.90;99.90
7232;DHT22;3657;49.630;11.018;2024-03-02T12:46:46;12.80;99.90
7232;DHT22;3657;49.630;11.018;2024-03-02T12:49:15;12.80;99.90
7232;DHT22;3657;49.630;11.018;2024-03-02T12:51:42;12.90;99.90
7232;DHT22;3657;49.630;11.018;2024-03-02T12:54:10;12.70;99.90
7232;DHT22;3657;49.630;11.018;2024-03-02T12:56:38;12.70;99.90
7232;DHT22;3657;49.630;11.018;2024-03-02T12:59:05;12.80;99.90
7232;DHT22;3657;49.630;11.018;2024-03-02T13:01:31;12.90;99.90
7232;DHT22;3657;49.630;11.018;2024-03-02T13:03:59;12.90;99.90
7232;DHT22;3657;49.630;11.018;2024-03-02T13:06:27;12.80;99.90
7232;DHT22;3657;49.630;11.018;2024-03-02T13:08:54;12.70;99.90
7232;DHT22;3657;49.630;11.018;2024-03-02T13:11:22;12.80;99.90
7232;DHT22;3657;49.630;11.018;2024-03-02T13:13:50;12.80;99.90
7232;DHT22;3657;49.630;11.018;2024-03-02T13:16:18;12.80;99.90
7232;DHT22;3657;49.630;11.018;2024-03-02T13:18:45;12.90;99.90
7232;DHT22;3657;49.630;11.018;2024-03-02T13:21:12;13.00;99.90
7232;DHT22;3657;49.630;11.018;2024-03-02T13:23:40;13.20;99.90
7232;DHT22;3657;49.630;11.018;2024-03-02T13:26:07;13.00;99.90
7232;DHT22;3657;49.630;11.018;2024-03-02T13:28:36;13.40;99.90
7232;DHT22;3657;49.630;11.018;2024-03-02T13:31:04;13.30;99.90
7232;DHT22;3657;49.630;11.018;2024-03-02T13:33:31;13.40;99.90
7232;DHT22;3657;49.630;11.018;2024-03-02T13:35:58;13.50;99.90
7232;DHT22;3657;49.630;11.018;2024-03-02T13:38:25;13.40;99.90
7232;DHT22;3657;49.630;11.018;2024-03-02T13:40:53;13.40;99.90
7232;DHT22;3657;49.630;11.018;2024-03-02T13:43:20;13.50;99.90
7232;DHT22;3657;49.630;11.018;2024-03-02T13:45:49;13.50;99.90
7232;DHT22;3657;49.630;11.018;2024-03-02T13:48:17;13.60;99.90
7232;DHT22;3657;49.630;11.018;2024-03-02T13:50:44;13.50;99.90
7232;DHT22;3657;49.630;11.018;2024-03-02T13:53:11;13.50;99.90
7232;DHT22;3657;49.630;11.018;2024-03-02T13:55:38;13.40;99.90
7232;DHT22;3657;49.630;11.018;2024-03-02T13:58:06;13.60;99.90
7232;DHT22;3657;49.630;11.018;2024-03-02T14:00:33;13.60;99.90
7232;DHT22;3657;49.630;11.018;2024-03-02T14:03:00;13.80;99.90
7232;DHT22;3657;49.630;11.018;2024-03-02T14:05:27;13.50;99.90
7232;DHT22;3657;49.630;11.018;2024-03-02T14:07:54;13.70;99.90
7232;DHT22;3657;49.630;11.018;2024-03-02T14:10:21;13.70;99.90
7232;DHT22;3657;49.630;11.018;2024-03-02T14:12:48;13.80;99.90
7232;DHT22;3657;49.630;11.018;2024-03-02T14:15:16;13.90;99.90
7232;DHT22;3657;49.630;11.018;2024-03-02T14:17:43;13.90;99.90
7232;DHT22;3657;49.630;11.018;2024-03-02T14:20:11;13.70;99.90
7232;DHT22;3657;49.630;11.018;2024-03-02T14:22:39;13.70;99.90
7232;DHT22;3657;49.630;11.018;2024-03-02T14:25:06;13.80;99.90
7232;DHT22;3657;49.630;11.018;2024-03-02T14:27:33;13.60;99.90
7232;DHT22;3657;49.630;11.018;2024-03-02T14:30:01;13.40;99.90
7232;DHT22;3657;49.630;11.018;2024-03-02T14:32:29;13.50;99.90
7232;DHT22;3657;49.630;11.018;2024-03-02T14:34:55;13.60;99.90
7232;DHT22;3657;49.630;11.018;2024-03-02T14:37:22;13.60;99.90
7232;DHT22;3657;49.630;11.018;2024-03-02T14:39:49;13.60;99.90
7232;DHT22;3657;49.630;11.018;2024-03-02T14:42:16;13.60;99.90
7232;DHT22;3657;49.630;11.018;2024-03-02T14:44:42;13.60;99.90
7232;DHT22;3657;49.630;11.018;2024-03-02T14:47:09;13.60;99.90
7232;DHT22;3657;49.630;11.018;2024-03-02T14:49:37;13.50;99.90
7232;DHT22;3657;49.630;11.018;2024-03-02T14:52:06;13.40;99.90
7232;DHT22;3657;49.630;11.018;2024-03-02T14:54:33;13.50;99.90
7232;DHT22;3657;49.630;11.018;2024-03-02T14:57:00;13.30;99.90
7232;DHT22;3657;49.630;11.018;2024-03-02T14:59:28;13.10;99.90
7232;DHT22;3657;49.630;11.018;2024-03-02T15:01:55;13.30;99.90
7232;DHT22;3657;49.630;11.018;2024-03-02T15:04:22;13.30;99.90
7232;DHT22;3657;49.630;11.018;2024-03-02T15:06:50;13.40;99.90
7232;DHT22;3657;49.630;11.018;2024-03-02T15:09:17;13.30;99.90
7232;DHT22;3657;49.630;11.018;2024-03-02T15:11:45;13.50;99.90
7232;DHT22;3657;49.630;11.018;2024-03-02T15:14:12;13.40;99.90
7232;DHT22;3657;49.630;11.018;2024-03-02T15:16:39;13.30;99.90
7232;DHT22;3657;49.630;11.018;2024-03-02T15:19:07;13.20;99.90
7232;DHT22;3657;49.630;11.018;2024-03-02T15:21:34;13.40;99.90
7232;DHT22;3657;49.630;11.018;2024-03-02T15:24:03;13.10;99.90
7232;DHT22;3657;49.630;11.018;2024-03-02T15:26:30;12.90;99.90
7232;DHT22;3657;49.630;11.018;2024-03-02T15:28:57;13.00;99.90
7232;DHT22;3657;49.630;11.018;2024-03-02T15:31:24;12.80;99.90
7232;DHT22;3657;49.630;11.018;2024-03-02T15:33:51;12.90;99.90
7232;DHT22;3657;49.630;11.018;2024-03-02T15:36:19;12.80;99.90
7232;DHT22;3657;49.630;11.018;2024-03-02T15:38:45;12.60;99.90
7232;DHT22;3657;49.630;11.018;2024-03-02T15:41:13;12.60;99.90
7232;DHT22;3657;49.630;11.018;2024-03-02T15:43:40;12.40;99.90
7232;DHT22;3657;49.630;11.018;2024-03-02T15:46:08;12.30;99.90
7232;DHT22;3657;49.630;11.018;2024-03-02T15:48:35;12.20;99.90
7232;DHT22;3657;49.630;11.018;2024-03-02T15:51:02;12.40;99.90
7232;DHT22;3657;49.630;11.018;2024-03-02T15:53:29;12.30;99.90
7232;DHT22;3657;49.630;11.018;2024-03-02T15:55:56;12.00;99.90
7232;DHT22;3657;49.630;11.018;2024-03-02T15:58:24;12.00;99.90
7232;DHT22;3657;49.630;11.018;2024-03-02T16:00:51;12.00;99.90